sensor_id;sensor_type;location;lat;lon;timestamp;P1;durP1;ratioP1;P2;durP2;ratioP2
25341;SDS011;13298;48.792;9.154;2023-06-10T00:01:46;4.95;;;4.03;;
25341;SDS011;13298;48.792;9.154;2023-06-10T00:04:15;5.97;;;4.53;;
25341;SDS011;13298;48.792;9.154;2023-06-10T00:06:43;6.03;;;4.70;;
25341;SDS011;13298;48.792;9.154;2023-06-10T00:09:09;5.15;;;4.10;;
25341;SDS011;13298;48.792;9.154;2023-06-10T00:11:35;5.07;;;4.00;;
25341;SDS011;13298;48.792;9.154;2023-06-10T00:14:02;5.65;;;4.38;;
25341;SDS011;13298;48.792;9.154;2023-06-10T00:16:29;4.53;;;3.97;;
25341;SDS011;13298;48.792;9.154;2023-06-10T00:18:55;6.40;;;4.25;;
25341;SDS011;13298;48.792;9.154;2023-06-10T00:21:25;5.30;;;4.55;;
25341;SDS011;13298;48.792;9.154;2023-06-10T00:23:54;5.53;;;4.43;;
25341;SDS011;13298;48.792;9.154;2023-06-10T00:26:24;4.85;;;4.35;;
25341;SDS011;13298;48.792;9.154;2023-06-10T00:28:51;4.63;;;4.15;;
25341;SDS011;13298;48.792;9.154;2023-06-10T00:31:17;5.05;;;4.40;;
25341;SDS011;13298;48.792;9.154;2023-06-10T00:33:43;4.43;;;4.03;;
25341;SDS011;13298;48.792;9.154;2023-06-10T00:36:09;5.47;;;4.38;;
25341;SDS011;13298;48.792;9.154;2023-06-10T00:38:35;4.28;;;3.88;;
25341;SDS011;13298;48.792;9.154;2023-06-10T00:41:01;5.00;;;4.30;;
25341;SDS011;13298;48.792;9.154;2023-06-10T00:43:27;4.90;;;4.32;;
25341;SDS011;13298;48.792;9.154;2023-06-10T00:45:52;5.65;;;3.90;;
25341;SDS011;13298;48.792;9.154;2023-06-10T00:48:18;4.65;;;4.22;;
25341;SDS011;13298;48.792;9.154;2023-06-10T00:50:45;5.07;;;4.15;;
25341;SDS011;13298;48.792;9.154;2023-06-10T00:53:11;6.03;;;4.38;;
25341;SDS011;13298;48.792;9.154;2023-06-10T00:55:38;6.28;;;4.70;;
25341;SDS011;13298;48.792;9.154;2023-06-10T00:58:05;5.45;;;4.35;;
25341;SDS011;13298;48.792;9.154;2023-06-10T01:00:32;6.60;;;4.88;;
25341;SDS011;13298;48.792;9.154;2023-06-10T01:02:57;5.75;;;4.40;;
25341;SDS011;13298;48.792;9.154;2023-06-10T01:05:23;5.20;;;4.32;;
25341;SDS011;13298;48.792;9.154;2023-06-10T01:07:51;6.25;;;4.75;;
25341;SDS011;13298;48.792;9.154;2023-06-10T01:10:38;5.55;;;4.40;;
25341;SDS011;13298;48.792;9.154;2023-06-10T01:13:11;6.90;;;4.90;;
25341;SDS011;13298;48.792;9.154;2023-06-10T01:15:38;5.65;;;4.43;;
25341;SDS011;13298;48.792;9.154;2023-06-10T01:18:08;5.22;;;4.63;;
25341;SDS011;13298;48.792;9.154;2023-06-10T01:20:40;4.97;;;4.35;;
25341;SDS011;13298;48.792;9.154;2023-06-10T01:23:08;5.25;;;4.53;;
25341;SDS011;13298;48.792;9.154;2023-06-10T01:25:39;5.53;;;4.45;;
25341;SDS011;13298;48.792;9.154;2023-06-10T01:28:19;5.85;;;4.20;;
25341;SDS011;13298;48.792;9.154;2023-06-10T01:31:48;5.85;;;4.43;;
25341;SDS011;13298;48.792;9.154;2023-06-10T01:34:25;4.85;;;4.20;;
25341;SDS011;13298;48.792;9.154;2023-06-10T01:36:51;4.68;;;4.20;;
25341;SDS011;13298;48.792;9.154;2023-06-10T01:39:21;5.78;;;4.47;;
25341;SDS011;13298;48.792;9.154;2023-06-10T01:41:49;5.85;;;4.53;;
25341;SDS011;13298;48.792;9.154;2023-06-10T01:44:18;4.65;;;4.05;;
25341;SDS011;13298;48.792;9.154;2023-06-10T01:46:45;5.22;;;4.28;;
25341;SDS011;13298;48.792;9.154;2023-06-10T01:49:11;4.72;;;4.18;;
25341;SDS011;13298;48.792;9.154;2023-06-10T01:51:37;4.93;;;3.88;;
25341;SDS011;13298;48.792;9.154;2023-06-10T01:54:03;5.43;;;4.43;;
25341;SDS011;13298;48.792;9.154;2023-06-10T01:56:29;5.63;;;4.00;;
25341;SDS011;13298;48.792;9.154;2023-06-10T01:58:55;9.00;;;4.95;;
25341;SDS011;13298;48.792;9.154;2023-06-10T02:01:24;7.63;;;4.97;;
25341;SDS011;13298;48.792;9.154;2023-06-10T02:03:50;5.38;;;4.53;;
25341;SDS011;13298;48.792;9.154;2023-06-10T02:06:16;4.65;;;4.15;;
25341;SDS011;13298;48.792;9.154;2023-06-10T02:08:42;5.22;;;3.80;;
25341;SDS011;13298;48.792;9.154;2023-06-10T02:11:07;5.72;;;4.07;;
25341;SDS011;13298;48.792;9.154;2023-06-10T02:13:33;5.32;;;4.03;;
25341;SDS011;13298;48.792;9.154;2023-06-10T02:15:59;8.00;;;4.85;;
25341;SDS011;13298;48.792;9.154;2023-06-10T02:18:26;5.75;;;5.03;;
25341;SDS011;13298;48.792;9.154;2023-06-10T02:20:53;5.75;;;4.50;;
25341;SDS011;13298;48.792;9.154;2023-06-10T02:23:19;5.93;;;4.57;;
25341;SDS011;13298;48.792;9.154;2023-06-10T02:25:45;5.32;;;4.82;;
25341;SDS011;13298;48.792;9.154;2023-06-10T02:28:12;6.13;;;4.43;;
25341;SDS011;13298;48.792;9.154;2023-06-10T02:30:41;5.68;;;4.45;;
25341;SDS011;13298;48.792;9.154;2023-06-10T02:33:07;4.72;;;4.22;;
25341;SDS011;13298;48.792;9.154;2023-06-10T02:35:37;6.50;;;4.10;;
25341;SDS011;13298;48.792;9.154;2023-06-10T02:38:04;5.65;;;4.53;;
25341;SDS011;13298;48.792;9.154;2023-06-10T02:40:30;5.88;;;4.38;;
25341;SDS011;13298;48.792;9.154;2023-06-10T02:42:56;5.07;;;4.57;;
25341;SDS011;13298;48.792;9.154;2023-06-10T02:45:22;5.72;;;4.22;;
25341;SDS011;13298;48.792;9.154;2023-06-10T02:47:48;5.05;;;4.55;;
25341;SDS011;13298;48.792;9.154;2023-06-10T02:50:13;6.43;;;4.30;;
25341;SDS011;13298;48.792;9.154;2023-06-10T02:52:39;5.32;;;4.45;;
25341;SDS011;13298;48.792;9.154;2023-06-10T02:55:05;5.78;;;4.75;;
25341;SDS011;13298;48.792;9.154;2023-06-10T02:57:31;6.32;;;4.60;;
25341;SDS011;13298;48.792;9.154;2023-06-10T02:59:57;5.78;;;4.75;;
25341;SDS011;13298;48.792;9.154;2023-06-10T03:02:23;5.60;;;4.97;;
25341;SDS011;13298;48.792;9.154;2023-06-10T03:04:53;7.20;;;4.75;;
25341;SDS011;13298;48.792;9.154;2023-06-10T03:07:22;5.55;;;4.97;;
25341;SDS011;13298;48.792;9.154;2023-06-10T03:09:48;9.63;;;5.25;;
25341;SDS011;13298;48.792;9.154;2023-06-10T03:12:15;7.50;;;5.70;;
25341;SDS011;13298;48.792;9.154;2023-06-10T03:14:41;6.40;;;5.63;;
25341;SDS011;13298;48.792;9.154;2023-06-10T03:17:07;6.15;;;5.10;;
25341;SDS011;13298;48.792;9.154;2023-06-10T03:19:33;6.80;;;5.85;;
25341;SDS011;13298;48.792;9.154;2023-06-10T03:24:35;7.35;;;5.70;;
25341;SDS011;13298;48.792;9.154;2023-06-10T03:27:04;8.02;;;6.03;;
25341;SDS011;13298;48.792;9.154;2023-06-10T03:29:38;6.88;;;5.68;;
25341;SDS011;13298;48.792;9.154;2023-06-10T03:32:04;6.85;;;5.50;;
25341;SDS011;13298;48.792;9.154;2023-06-10T03:34:31;7.43;;;5.60;;
25341;SDS011;13298;48.792;9.154;2023-06-10T03:36:57;7.68;;;5.55;;
25341;SDS011;13298;48.792;9.154;2023-06-10T03:39:23;6.55;;;5.38;;
25341;SDS011;13298;48.792;9.154;2023-06-10T03:41:49;7.50;;;4.88;;
25341;SDS011;13298;48.792;9.154;2023-06-10T03:44:15;6.13;;;5.25;;
25341;SDS011;13298;48.792;9.154;2023-06-10T03:46:41;6.45;;;5.07;;
25341;SDS011;13298;48.792;9.154;2023-06-10T03:49:07;6.15;;;5.10;;
25341;SDS011;13298;48.792;9.154;2023-06-10T03:51:32;5.50;;;5.00;;
25341;SDS011;13298;48.792;9.154;2023-06-10T03:53:58;6.18;;;5.32;;
25341;SDS011;13298;48.792;9.154;2023-06-10T03:56:24;7.50;;;5.25;;
25341;SDS011;13298;48.792;9.154;2023-06-10T03:58:50;5.88;;;5.05;;
25341;SDS011;13298;48.792;9.154;2023-06-10T04:01:16;5.82;;;4.75;;
25341;SDS011;13298;48.792;9.154;2023-06-10T04:03:45;6.28;;;5.20;;
25341;SDS011;13298;48.792;9.154;2023-06-10T04:06:14;8.32;;;5.63;;
25341;SDS011;13298;48.792;9.154;2023-06-10T04:08:41;5.95;;;5.35;;
25341;SDS011;13298;48.792;9.154;2023-06-10T04:11:07;6.18;;;4.90;;
25341;SDS011;13298;48.792;9.154;2023-06-10T04:13:34;6.55;;;4.82;;
25341;SDS011;13298;48.792;9.154;2023-06-10T04:15:59;7.40;;;4.78;;
25341;SDS011;13298;48.792;9.154;2023-06-10T04:18:25;6.07;;;5.30;;
25341;SDS011;13298;48.792;9.154;2023-06-10T04:20:51;6.32;;;4.95;;
25341;SDS011;13298;48.792;9.154;2023-06-10T04:23:16;5.38;;;4.68;;
25341;SDS011;13298;48.792;9.154;2023-06-10T04:25:43;6.28;;;4.55;;
25341;SDS011;13298;48.792;9.154;2023-06-10T04:28:08;6.18;;;4.90;;
25341;SDS011;13298;48.792;9.154;2023-06-10T04:30:34;5.20;;;4.60;;
25341;SDS011;13298;48.792;9.154;2023-06-10T04:33:00;6.25;;;5.22;;
25341;SDS011;13298;48.792;9.154;2023-06-10T04:35:25;5.63;;;4.88;;
25341;SDS011;13298;48.792;9.154;2023-06-10T04:37:54;4.85;;;4.30;;
25341;SDS011;13298;48.792;9.154;2023-06-10T04:40:20;5.53;;;4.60;;
25341;SDS011;13298;48.792;9.154;2023-06-10T04:42:45;4.93;;;4.25;;
25341;SDS011;13298;48.792;9.154;2023-06-10T04:45:11;5.65;;;4.70;;
25341;SDS011;13298;48.792;9.154;2023-06-10T04:47:37;5.13;;;4.55;;
25341;SDS011;13298;48.792;9.154;2023-06-10T04:50:02;5.03;;;4.38;;
25341;SDS011;13298;48.792;9.154;2023-06-10T04:52:29;4.72;;;4.20;;
25341;SDS011;13298;48.792;9.154;2023-06-10T04:54:55;4.82;;;4.30;;
25341;SDS011;13298;48.792;9.154;2023-06-10T04:57:23;4.55;;;4.15;;
25341;SDS011;13298;48.792;9.154;2023-06-10T04:59:48;4.85;;;3.75;;
25341;SDS011;13298;48.792;9.154;2023-06-10T05:02:14;5.10;;;4.60;;
25341;SDS011;13298;48.792;9.154;2023-06-10T05:04:40;5.28;;;4.22;;
25341;SDS011;13298;48.792;9.154;2023-06-10T05:07:06;6.32;;;4.13;;
25341;SDS011;13298;48.792;9.154;2023-06-10T05:09:31;5.80;;;4.60;;
25341;SDS011;13298;48.792;9.154;2023-06-10T05:11:58;6.07;;;4.50;;
25341;SDS011;13298;48.792;9.154;2023-06-10T05:14:23;4.38;;;3.72;;
25341;SDS011;13298;48.792;9.154;2023-06-10T05:16:49;6.38;;;4.40;;
25341;SDS011;13298;48.792;9.154;2023-06-10T05:19:15;5.45;;;4.75;;
25341;SDS011;13298;48.792;9.154;2023-06-10T05:21:41;4.40;;;4.00;;
25341;SDS011;13298;48.792;9.154;2023-06-10T05:24:07;5.07;;;4.07;;
25341;SDS011;13298;48.792;9.154;2023-06-10T05:26:33;5.25;;;4.20;;
25341;SDS011;13298;48.792;9.154;2023-06-10T05:29:02;4.70;;;4.05;;
25341;SDS011;13298;48.792;9.154;2023-06-10T05:31:29;5.22;;;4.00;;
25341;SDS011;13298;48.792;9.154;2023-06-10T05:33:55;4.35;;;3.90;;
25341;SDS011;13298;48.792;9.154;2023-06-10T05:36:20;4.30;;;3.70;;
25341;SDS011;13298;48.792;9.154;2023-06-10T05:38:46;5.68;;;4.30;;
25341;SDS011;13298;48.792;9.154;2023-06-10T05:41:12;5.45;;;3.97;;
25341;SDS011;13298;48.792;9.154;2023-06-10T05:43:38;5.18;;;4.38;;
25341;SDS011;13298;48.792;9.154;2023-06-10T05:46:04;5.60;;;4.18;;
25341;SDS011;13298;48.792;9.154;2023-06-10T05:48:29;5.55;;;4.15;;
25341;SDS011;13298;48.792;9.154;2023-06-10T05:50:55;4.30;;;3.78;;
25341;SDS011;13298;48.792;9.154;2023-06-10T05:53:21;4.28;;;3.80;;
25341;SDS011;13298;48.792;9.154;2023-06-10T05:55:47;7.88;;;4.30;;
25341;SDS011;13298;48.792;9.154;2023-06-10T05:58:13;6.68;;;4.07;;
25341;SDS011;13298;48.792;9.154;2023-06-10T06:00:39;4.43;;;3.85;;
25341;SDS011;13298;48.792;9.154;2023-06-10T06:03:07;4.90;;;4.40;;
25341;SDS011;13298;48.792;9.154;2023-06-10T06:05:34;4.15;;;3.75;;
25341;SDS011;13298;48.792;9.154;2023-06-10T06:08:01;7.43;;;3.60;;
25341;SDS011;13298;48.792;9.154;2023-06-10T06:10:27;4.43;;;3.78;;
25341;SDS011;13298;48.792;9.154;2023-06-10T06:12:52;4.43;;;4.00;;
25341;SDS011;13298;48.792;9.154;2023-06-10T06:15:18;6.85;;;4.10;;
25341;SDS011;13298;48.792;9.154;2023-06-10T06:17:44;7.68;;;4.50;;
25341;SDS011;13298;48.792;9.154;2023-06-10T06:20:09;5.05;;;4.20;;
25341;SDS011;13298;48.792;9.154;2023-06-10T06:22:36;5.03;;;4.40;;
25341;SDS011;13298;48.792;9.154;2023-06-10T06:25:02;4.70;;;4.13;;
25341;SDS011;13298;48.792;9.154;2023-06-10T06:27:28;5.40;;;4.30;;
25341;SDS011;13298;48.792;9.154;2023-06-10T06:29:54;4.97;;;4.32;;
25341;SDS011;13298;48.792;9.154;2023-06-10T06:32:20;5.93;;;4.53;;
25341;SDS011;13298;48.792;9.154;2023-06-10T06:34:47;4.57;;;3.70;;
25341;SDS011;13298;48.792;9.154;2023-06-10T06:37:18;5.10;;;4.32;;
25341;SDS011;13298;48.792;9.154;2023-06-10T06:39:49;4.65;;;3.95;;
25341;SDS011;13298;48.792;9.154;2023-06-10T06:42:16;3.85;;;3.45;;
25341;SDS011;13298;48.792;9.154;2023-06-10T06:44:41;5.30;;;4.20;;
25341;SDS011;13298;48.792;9.154;2023-06-10T06:47:08;5.10;;;4.45;;
25341;SDS011;13298;48.792;9.154;2023-06-10T06:49:33;5.93;;;4.55;;
25341;SDS011;13298;48.792;9.154;2023-06-10T06:51:59;6.47;;;4.75;;
25341;SDS011;13298;48.792;9.154;2023-06-10T06:54:25;6.35;;;4.55;;
25341;SDS011;13298;48.792;9.154;2023-06-10T06:56:50;5.80;;;4.45;;
25341;SDS011;13298;48.792;9.154;2023-06-10T06:59:16;6.93;;;4.88;;
25341;SDS011;13298;48.792;9.154;2023-06-10T07:01:44;12.07;;;5.72;;
25341;SDS011;13298;48.792;9.154;2023-06-10T07:04:10;6.53;;;4.32;;
25341;SDS011;13298;48.792;9.154;2023-06-10T07:06:36;4.72;;;4.30;;
25341;SDS011;13298;48.792;9.154;2023-06-10T07:09:03;4.32;;;3.92;;
25341;SDS011;13298;48.792;9.154;2023-06-10T07:11:29;5.20;;;4.70;;
25341;SDS011;13298;48.792;9.154;2023-06-10T07:13:55;6.50;;;4.60;;
25341;SDS011;13298;48.792;9.154;2023-06-10T07:16:21;6.25;;;4.30;;
25341;SDS011;13298;48.792;9.154;2023-06-10T07:18:47;5.13;;;4.43;;
25341;SDS011;13298;48.792;9.154;2023-06-10T07:21:13;5.32;;;4.38;;
25341;SDS011;13298;48.792;9.154;2023-06-10T07:23:42;5.18;;;4.40;;
25341;SDS011;13298;48.792;9.154;2023-06-10T07:26:08;5.20;;;4.20;;
25341;SDS011;13298;48.792;9.154;2023-06-10T07:28:36;5.25;;;4.00;;
25341;SDS011;13298;48.792;9.154;2023-06-10T07:31:02;6.70;;;4.25;;
25341;SDS011;13298;48.792;9.154;2023-06-10T07:33:28;4.20;;;3.80;;
25341;SDS011;13298;48.792;9.154;2023-06-10T07:35:54;4.40;;;4.00;;
25341;SDS011;13298;48.792;9.154;2023-06-10T07:38:20;5.22;;;4.38;;
25341;SDS011;13298;48.792;9.154;2023-06-10T07:40:46;4.88;;;4.22;;
25341;SDS011;13298;48.792;9.154;2023-06-10T07:43:12;4.43;;;4.00;;
25341;SDS011;13298;48.792;9.154;2023-06-10T07:45:39;5.22;;;4.05;;
25341;SDS011;13298;48.792;9.154;2023-06-10T07:48:05;5.07;;;4.13;;
25341;SDS011;13298;48.792;9.154;2023-06-10T07:50:31;7.75;;;4.97;;
25341;SDS011;13298;48.792;9.154;2023-06-10T07:52:56;5.05;;;4.55;;
25341;SDS011;13298;48.792;9.154;2023-06-10T07:55:22;5.75;;;4.53;;
25341;SDS011;13298;48.792;9.154;2023-06-10T07:57:50;5.10;;;3.83;;
25341;SDS011;13298;48.792;9.154;2023-06-10T08:00:17;4.88;;;4.25;;
25341;SDS011;13298;48.792;9.154;2023-06-10T08:02:43;5.70;;;4.47;;
25341;SDS011;13298;48.792;9.154;2023-06-10T08:05:09;4.40;;;4.00;;
25341;SDS011;13298;48.792;9.154;2023-06-10T08:07:34;6.00;;;4.45;;
25341;SDS011;13298;48.792;9.154;2023-06-10T08:10:00;5.65;;;4.45;;
25341;SDS011;13298;48.792;9.154;2023-06-10T08:12:27;7.57;;;4.43;;
25341;SDS011;13298;48.792;9.154;2023-06-10T08:14:53;5.60;;;4.38;;
25341;SDS011;13298;48.792;9.154;2023-06-10T08:17:20;5.38;;;4.50;;
25341;SDS011;13298;48.792;9.154;2023-06-10T08:19:45;5.28;;;4.45;;
25341;SDS011;13298;48.792;9.154;2023-06-10T08:22:11;4.85;;;4.18;;
25341;SDS011;13298;48.792;9.154;2023-06-10T08:24:37;4.88;;;4.10;;
25341;SDS011;13298;48.792;9.154;2023-06-10T08:27:03;5.10;;;4.55;;
25341;SDS011;13298;48.792;9.154;2023-06-10T08:29:29;7.13;;;4.18;;
25341;SDS011;13298;48.792;9.154;2023-06-10T08:31:56;6.60;;;4.07;;
25341;SDS011;13298;48.792;9.154;2023-06-10T08:34:22;6.40;;;4.32;;
25341;SDS011;13298;48.792;9.154;2023-06-10T08:36:48;5.63;;;4.45;;
25341;SDS011;13298;48.792;9.154;2023-06-10T08:39:18;5.13;;;4.57;;
25341;SDS011;13298;48.792;9.154;2023-06-10T08:41:46;4.93;;;4.43;;
25341;SDS011;13298;48.792;9.154;2023-06-10T08:44:28;7.13;;;4.53;;
25341;SDS011;13298;48.792;9.154;2023-06-10T08:46:59;4.90;;;4.00;;
25341;SDS011;13298;48.792;9.154;2023-06-10T08:49:26;7.95;;;4.30;;
25341;SDS011;13298;48.792;9.154;2023-06-10T08:51:58;7.28;;;4.25;;
25341;SDS011;13298;48.792;9.154;2023-06-10T08:54:26;4.95;;;4.18;;
25341;SDS011;13298;48.792;9.154;2023-06-10T08:56:55;10.98;;;4.20;;
25341;SDS011;13298;48.792;9.154;2023-06-10T08:59:24;4.55;;;3.97;;
25341;SDS011;13298;48.792;9.154;2023-06-10T09:01:50;5.40;;;4.28;;
25341;SDS011;13298;48.792;9.154;2023-06-10T09:04:18;4.47;;;4.07;;
25341;SDS011;13298;48.792;9.154;2023-06-10T09:06:44;7.38;;;4.30;;
25341;SDS011;13298;48.792;9.154;2023-06-10T09:09:12;5.57;;;4.50;;
25341;SDS011;13298;48.792;9.154;2023-06-10T09:11:41;5.30;;;4.80;;
25341;SDS011;13298;48.792;9.154;2023-06-10T09:14:07;6.78;;;4.63;;
25341;SDS011;13298;48.792;9.154;2023-06-10T09:16:33;5.13;;;4.30;;
25341;SDS011;13298;48.792;9.154;2023-06-10T09:18:59;5.97;;;4.30;;
25341;SDS011;13298;48.792;9.154;2023-06-10T09:21:25;4.47;;;3.90;;
25341;SDS011;13298;48.792;9.154;2023-06-10T09:23:51;5.85;;;4.60;;
25341;SDS011;13298;48.792;9.154;2023-06-10T09:26:17;4.55;;;4.15;;
25341;SDS011;13298;48.792;9.154;2023-06-10T09:28:49;5.85;;;4.30;;
25341;SDS011;13298;48.792;9.154;2023-06-10T09:31:15;4.70;;;4.20;;
25341;SDS011;13298;48.792;9.154;2023-06-10T09:33:46;4.47;;;4.05;;
25341;SDS011;13298;48.792;9.154;2023-06-10T09:36:20;5.35;;;4.65;;
25341;SDS011;13298;48.792;9.154;2023-06-10T09:38:49;4.95;;;3.95;;
25341;SDS011;13298;48.792;9.154;2023-06-10T09:41:15;5.03;;;4.50;;
25341;SDS011;13298;48.792;9.154;2023-06-10T09:43:42;5.95;;;4.32;;
25341;SDS011;13298;48.792;9.154;2023-06-10T09:46:17;4.45;;;4.05;;
25341;SDS011;13298;48.792;9.154;2023-06-10T09:48:45;6.25;;;4.35;;
25341;SDS011;13298;48.792;9.154;2023-06-10T09:51:12;4.75;;;4.20;;
25341;SDS011;13298;48.792;9.154;2023-06-10T09:53:42;7.03;;;4.82;;
25341;SDS011;13298;48.792;9.154;2023-06-10T09:56:08;5.88;;;4.50;;
25341;SDS011;13298;48.792;9.154;2023-06-10T09:58:37;4.88;;;4.38;;
25341;SDS011;13298;48.792;9.154;2023-06-10T10:01:04;4.55;;;4.15;;
25341;SDS011;13298;48.792;9.154;2023-06-10T10:03:31;5.25;;;4.75;;
25341;SDS011;13298;48.792;9.154;2023-06-10T10:05:57;5.15;;;4.65;;
25341;SDS011;13298;48.792;9.154;2023-06-10T10:08:25;5.95;;;4.90;;
25341;SDS011;13298;48.792;9.154;2023-06-10T10:10:51;4.88;;;4.43;;
25341;SDS011;13298;48.792;9.154;2023-06-10T10:13:17;5.22;;;4.72;;
25341;SDS011;13298;48.792;9.154;2023-06-10T10:15:43;9.60;;;4.70;;
25341;SDS011;13298;48.792;9.154;2023-06-10T10:18:10;5.68;;;4.32;;
25341;SDS011;13298;48.792;9.154;2023-06-10T20:35:01;7.32;;;5.07;;
25341;SDS011;13298;48.792;9.154;2023-06-10T20:37:27;5.13;;;4.60;;
25341;SDS011;13298;48.792;9.154;2023-06-10T20:39:52;5.28;;;4.70;;
25341;SDS011;13298;48.792;9.154;2023-06-10T20:42:18;5.38;;;4.88;;
25341;SDS011;13298;48.792;9.154;2023-06-10T20:44:44;6.50;;;4.80;;
25341;SDS011;13298;48.792;9.154;2023-06-10T20:47:09;4.90;;;4.40;;
25341;SDS011;13298;48.792;9.154;2023-06-10T20:49:35;4.93;;;4.40;;
25341;SDS011;13298;48.792;9.154;2023-06-10T20:52:01;5.72;;;5.05;;
25341;SDS011;13298;48.792;9.154;2023-06-10T20:54:26;5.30;;;4.72;;
25341;SDS011;13298;48.792;9.154;2023-06-10T20:56:52;5.72;;;4.78;;
25341;SDS011;13298;48.792;9.154;2023-06-10T20:59:18;4.45;;;4.00;;
25341;SDS011;13298;48.792;9.154;2023-06-10T21:01:43;4.65;;;4.18;;
25341;SDS011;13298;48.792;9.154;2023-06-10T21:04:09;5.63;;;4.97;;
25341;SDS011;13298;48.792;9.154;2023-06-10T21:06:35;5.07;;;4.53;;
25341;SDS011;13298;48.792;9.154;2023-06-10T21:09:00;5.15;;;4.65;;
25341;SDS011;13298;48.792;9.154;2023-06-10T21:11:26;4.88;;;4.38;;
25341;SDS011;13298;48.792;9.154;2023-06-10T21:13:52;5.97;;;4.43;;
25341;SDS011;13298;48.792;9.154;2023-06-10T21:16:17;5.25;;;4.20;;
25341;SDS011;13298;48.792;9.154;2023-06-10T21:18:43;5.28;;;4.40;;
25341;SDS011;13298;48.792;9.154;2023-06-10T21:21:09;4.78;;;4.32;;
25341;SDS011;13298;48.792;9.154;2023-06-10T21:23:35;4.63;;;4.20;;
25341;SDS011;13298;48.792;9.154;2023-06-10T21:26:01;5.03;;;4.43;;
25341;SDS011;13298;48.792;9.154;2023-06-10T21:28:30;5.25;;;4.75;;
25341;SDS011;13298;48.792;9.154;2023-06-10T21:30:57;4.97;;;4.30;;
25341;SDS011;13298;48.792;9.154;2023-06-10T21:33:22;5.95;;;4.78;;
25341;SDS011;13298;48.792;9.154;2023-06-10T21:35:48;4.65;;;4.25;;
25341;SDS011;13298;48.792;9.154;2023-06-10T21:38:14;5.50;;;4.47;;
25341;SDS011;13298;48.792;9.154;2023-06-10T21:40:40;5.47;;;4.30;;
25341;SDS011;13298;48.792;9.154;2023-06-10T21:43:05;4.32;;;3.92;;
25341;SDS011;13298;48.792;9.154;2023-06-10T21:45:31;5.20;;;4.28;;
25341;SDS011;13298;48.792;9.154;2023-06-10T21:47:57;5.45;;;4.65;;
25341;SDS011;13298;48.792;9.154;2023-06-10T21:50:23;5.03;;;4.03;;
25341;SDS011;13298;48.792;9.154;2023-06-10T21:52:48;5.30;;;4.75;;
25341;SDS011;13298;48.792;9.154;2023-06-10T21:55:14;4.63;;;4.10;;
25341;SDS011;13298;48.792;9.154;2023-06-10T21:57:40;8.50;;;4.93;;
25341;SDS011;13298;48.792;9.154;2023-06-10T22:00:06;6.70;;;4.68;;
25341;SDS011;13298;48.792;9.154;2023-06-10T22:02:39;6.90;;;4.70;;
25341;SDS011;13298;48.792;9.154;2023-06-10T22:05:05;4.75;;;4.25;;
25341;SDS011;13298;48.792;9.154;2023-06-10T22:07:32;5.32;;;4.20;;
25341;SDS011;13298;48.792;9.154;2023-06-10T22:09:59;4.72;;;4.20;;
25341;SDS011;13298;48.792;9.154;2023-06-10T22:12:25;4.65;;;4.20;;
25341;SDS011;13298;48.792;9.154;2023-06-10T22:14:50;5.22;;;4.10;;
25341;SDS011;13298;48.792;9.154;2023-06-10T22:17:16;4.72;;;4.22;;
25341;SDS011;13298;48.792;9.154;2023-06-10T22:19:42;4.97;;;4.15;;
25341;SDS011;13298;48.792;9.154;2023-06-10T22:22:09;4.25;;;3.85;;
25341;SDS011;13298;48.792;9.154;2023-06-10T22:24:35;6.70;;;4.20;;
25341;SDS011;13298;48.792;9.154;2023-06-10T22:27:01;5.72;;;4.65;;
25341;SDS011;13298;48.792;9.154;2023-06-10T22:29:27;5.90;;;4.40;;
25341;SDS011;13298;48.792;9.154;2023-06-10T22:31:54;5.72;;;4.28;;
25341;SDS011;13298;48.792;9.154;2023-06-10T22:34:20;4.78;;;4.22;;
25341;SDS011;13298;48.792;9.154;2023-06-10T22:42:44;6.03;;;4.10;;
25341;SDS011;13298;48.792;9.154;2023-06-10T22:45:10;5.82;;;4.15;;
25341;SDS011;13298;48.792;9.154;2023-06-10T22:47:36;4.93;;;4.40;;
25341;SDS011;13298;48.792;9.154;2023-06-10T22:50:01;4.78;;;4.10;;
25341;SDS011;13298;48.792;9.154;2023-06-10T22:52:28;4.78;;;4.10;;
25341;SDS011;13298;48.792;9.154;2023-06-10T22:54:54;4.80;;;4.25;;
25341;SDS011;13298;48.792;9.154;2023-06-10T22:57:19;5.07;;;3.92;;
25341;SDS011;13298;48.792;9.154;2023-06-10T22:59:45;5.43;;;4.50;;
25341;SDS011;13298;48.792;9.154;2023-06-10T23:02:11;4.70;;;4.28;;
25341;SDS011;13298;48.792;9.154;2023-06-10T23:04:37;5.28;;;4.78;;
25341;SDS011;13298;48.792;9.154;2023-06-10T23:07:03;4.45;;;4.03;;
25341;SDS011;13298;48.792;9.154;2023-06-10T23:09:29;5.50;;;4.50;;
25341;SDS011;13298;48.792;9.154;2023-06-10T23:11:55;4.85;;;4.35;;
25341;SDS011;13298;48.792;9.154;2023-06-10T23:14:21;4.50;;;4.05;;
25341;SDS011;13298;48.792;9.154;2023-06-10T23:16:47;5.22;;;4.72;;
25341;SDS011;13298;48.792;9.154;2023-06-10T23:19:12;4.68;;;4.28;;
25341;SDS011;13298;48.792;9.154;2023-06-10T23:21:43;4.88;;;4.38;;
25341;SDS011;13298;48.792;9.154;2023-06-10T23:24:14;4.82;;;4.32;;
25341;SDS011;13298;48.792;9.154;2023-06-10T23:26:42;5.55;;;4.38;;
25341;SDS011;13298;48.792;9.154;2023-06-10T23:29:08;9.18;;;4.72;;
25341;SDS011;13298;48.792;9.154;2023-06-10T23:31:33;6.38;;;4.85;;
25341;SDS011;13298;48.792;9.154;2023-06-10T23:33:59;6.70;;;5.10;;
25341;SDS011;13298;48.792;9.154;2023-06-10T23:36:25;6.00;;;4.80;;
25341;SDS011;13298;48.792;9.154;2023-06-10T23:38:50;5.53;;;4.68;;
25341;SDS011;13298;48.792;9.154;2023-06-10T23:41:16;5.50;;;4.97;;
25341;SDS011;13298;48.792;9.154;2023-06-10T23:43:42;5.43;;;4.60;;
25341;SDS011;13298;48.792;9.154;2023-06-10T23:46:07;5.35;;;4.50;;
25341;SDS011;13298;48.792;9.154;2023-06-10T23:48:33;5.28;;;4.78;;
25341;SDS011;13298;48.792;9.154;2023-06-10T23:51:00;5.80;;;4.90;;
25341;SDS011;13298;48.792;9.154;2023-06-10T23:53:26;5.32;;;4.50;;
25341;SDS011;13298;48.792;9.154;2023-06-10T23:55:52;5.28;;;4.40;;
25341;SDS011;13298;48.792;9.154;2023-06-10T23:58:18;6.05;;;4.35;;
